createdAt,value
2018-12-10T00:00:49.872Z,9.23
2018-12-10T00:05:53.093Z,12.50
2018-12-10T00:10:56.320Z,12.40
2018-12-10T00:15:59.526Z,8.83
2018-12-10T00:21:02.728Z,12.60
2018-12-10T00:26:05.926Z,10.23
2018-12-10T00:31:09.143Z,10.03
2018-12-10T00:36:13.045Z,11.47
2018-12-10T00:41:16.269Z,10.97
2018-12-10T00:46:19.439Z,7.70
2018-12-10T00:51:22.633Z,9.10
2018-12-10T00:56:25.873Z,8.73
2018-12-10T01:01:29.077Z,13.77
2018-12-10T01:06:32.261Z,8.00
2018-12-10T01:11:35.451Z,9.57
2018-12-10T01:16:38.681Z,11.87
2018-12-10T01:21:41.870Z,12.10
2018-12-10T01:26:45.245Z,7.70
2018-12-10T01:31:48.437Z,9.23
2018-12-10T01:36:51.664Z,10.43
2018-12-10T01:41:54.921Z,9.33
2018-12-10T01:46:58.125Z,9.10
2018-12-10T01:52:01.499Z,8.77
2018-12-10T01:57:04.726Z,7.30
2018-12-10T02:02:07.963Z,9.33
2018-12-10T02:07:11.410Z,9.37
2018-12-10T02:12:14.620Z,9.83
2018-12-10T02:17:17.814Z,5.87
2018-12-10T02:22:21.250Z,10.50
2018-12-10T02:27:24.456Z,9.93
2018-12-10T02:32:27.661Z,9.07
2018-12-10T02:37:31.005Z,7.80
2018-12-10T02:42:34.235Z,9.73
2018-12-10T02:47:37.494Z,10.20
2018-12-10T02:52:40.809Z,8.80
2018-12-10T02:57:44.348Z,7.73
2018-12-10T03:02:47.569Z,7.53
2018-12-10T03:07:50.815Z,8.73
2018-12-10T03:12:54.027Z,6.37
2018-12-10T03:17:57.273Z,7.67
2018-12-10T03:23:00.498Z,8.20
2018-12-10T03:28:03.758Z,6.67
2018-12-10T03:33:06.942Z,6.70
2018-12-10T03:38:10.168Z,8.70
2018-12-10T03:43:13.734Z,8.50
2018-12-10T03:48:16.968Z,6.50
2018-12-10T03:53:20.192Z,6.90
2018-12-10T03:58:23.386Z,7.37
2018-12-10T04:03:26.578Z,6.80
2018-12-10T04:08:30.023Z,6.03
2018-12-10T04:13:33.260Z,7.60
2018-12-10T04:18:36.434Z,8.00
2018-12-10T04:23:39.639Z,7.30
2018-12-10T04:28:42.847Z,7.67
2018-12-10T04:33:46.072Z,7.73
2018-12-10T04:38:49.287Z,8.50
2018-12-10T04:43:52.513Z,7.90
2018-12-10T04:48:55.886Z,6.83
2018-12-10T04:53:59.122Z,5.77
2018-12-10T04:59:02.413Z,5.67
2018-12-10T05:04:05.663Z,5.73
2018-12-10T05:09:08.906Z,4.43
2018-12-10T05:14:12.466Z,6.30
2018-12-10T05:19:15.705Z,5.53
2018-12-10T05:24:18.953Z,5.40
2018-12-10T05:29:22.390Z,7.00
2018-12-10T05:34:25.586Z,7.53
2018-12-10T05:39:28.904Z,8.03
2018-12-10T05:44:32.092Z,5.87
2018-12-10T05:49:35.377Z,5.47
2018-12-10T05:54:38.570Z,5.70
2018-12-10T05:59:41.802Z,4.97
2018-12-10T06:04:45.035Z,5.90
2018-12-10T06:09:48.240Z,6.00
2018-12-10T06:14:51.528Z,4.50
2018-12-10T06:19:54.710Z,5.47
2018-12-10T06:24:58.068Z,4.50
2018-12-10T06:30:01.330Z,5.23
2018-12-10T06:35:04.800Z,6.07
2018-12-10T06:40:07.991Z,6.30
2018-12-10T06:45:11.522Z,5.43
2018-12-10T06:50:14.971Z,5.03
2018-12-10T06:55:18.182Z,3.63
2018-12-10T07:00:21.492Z,6.70
2018-12-10T07:05:25.842Z,7.00
2018-12-10T07:10:29.340Z,4.90
2018-12-10T07:15:33.540Z,6.37
2018-12-10T07:20:37.199Z,5.70
2018-12-10T07:25:40.658Z,4.10
2018-12-10T07:30:43.925Z,3.67
2018-12-10T07:35:47.643Z,3.93
2018-12-10T07:40:50.874Z,3.90
2018-12-10T07:45:54.183Z,5.80
2018-12-10T07:50:57.477Z,5.40
2018-12-10T07:56:00.760Z,4.10
2018-12-10T08:01:04.153Z,3.70
2018-12-10T08:06:07.468Z,3.57
2018-12-10T08:11:10.829Z,5.00
2018-12-10T08:16:14.078Z,4.13
2018-12-10T08:21:18.352Z,4.17
2018-12-10T08:26:21.573Z,7.20
2018-12-10T08:31:24.791Z,5.67
2018-12-10T08:36:28.045Z,7.10
2018-12-10T08:41:31.384Z,4.40
2018-12-10T08:46:35.048Z,3.97
2018-12-10T08:51:38.268Z,6.30
2018-12-10T08:56:41.536Z,7.77
2018-12-10T09:01:44.803Z,4.83
2018-12-10T09:06:48.332Z,4.00
2018-12-10T09:11:51.638Z,4.17
2018-12-10T09:16:54.864Z,5.10
2018-12-10T09:21:58.444Z,10.93
2018-12-10T09:27:01.926Z,6.80
2018-12-10T09:32:05.573Z,5.00
2018-12-10T09:37:08.790Z,8.60
2018-12-10T09:42:12.095Z,4.60
2018-12-10T09:47:15.717Z,6.93
2018-12-10T09:52:19.084Z,4.33
2018-12-10T09:57:22.353Z,4.90
2018-12-10T10:02:25.738Z,5.33
2018-12-10T10:07:29.400Z,3.80
2018-12-10T10:12:32.617Z,4.03
2018-12-10T10:17:35.925Z,3.50
2018-12-10T10:22:39.197Z,4.73
2018-12-10T10:27:43.020Z,5.80
2018-12-10T10:32:46.310Z,2.50
2018-12-10T10:37:49.887Z,3.73
2018-12-10T10:42:53.168Z,2.93
2018-12-10T10:47:56.427Z,4.00
2018-12-10T10:52:59.691Z,5.20
2018-12-10T10:58:03.079Z,3.73
2018-12-10T11:03:10.525Z,9.13
2018-12-10T11:08:13.764Z,5.63
2018-12-10T11:13:17.223Z,7.47
2018-12-10T11:18:20.546Z,5.00
2018-12-10T11:23:23.816Z,6.50
2018-12-10T11:28:27.329Z,6.03
2018-12-10T11:33:30.580Z,4.93
2018-12-10T11:38:33.902Z,5.47
2018-12-10T11:43:37.161Z,7.37
2018-12-10T11:48:40.513Z,2.47
2018-12-10T11:53:44.308Z,6.40
2018-12-10T11:58:47.560Z,3.50
2018-12-10T12:03:50.820Z,5.05
2018-12-10T12:08:54.117Z,3.60
2018-12-10T12:13:58.189Z,3.07
2018-12-10T12:19:02.336Z,11.30
2018-12-10T12:24:05.876Z,3.40
2018-12-10T12:29:09.466Z,1.50
2018-12-10T12:34:13.279Z,3.70
2018-12-10T12:39:16.720Z,4.00
2018-12-10T12:44:19.899Z,2.63
2018-12-10T12:49:23.255Z,3.33
2018-12-10T12:54:26.553Z,3.77
2018-12-10T12:59:29.810Z,4.13
2018-12-10T13:04:34.465Z,7.23
2018-12-10T13:09:38.938Z,3.80
2018-12-10T13:14:42.443Z,4.30
2018-12-10T13:19:45.632Z,2.53
2018-12-10T13:24:48.832Z,3.83
2018-12-10T13:29:52.449Z,5.60
2018-12-10T13:34:55.970Z,3.07
2018-12-10T13:39:59.475Z,4.43
2018-12-10T13:45:02.937Z,3.47
2018-12-10T13:50:06.275Z,2.33
2018-12-10T13:55:10.211Z,2.50
2018-12-10T14:00:13.503Z,2.53
2018-12-10T14:05:16.977Z,3.90
2018-12-10T14:10:20.177Z,3.77
2018-12-10T14:15:23.538Z,5.53
2018-12-10T14:20:26.943Z,4.47
2018-12-10T14:25:30.184Z,5.00
2018-12-10T14:30:33.831Z,3.30
2018-12-10T14:35:37.472Z,3.43
2018-12-10T14:40:40.949Z,2.87
2018-12-10T14:45:44.222Z,2.77
2018-12-10T14:50:47.549Z,3.57
2018-12-10T14:55:50.955Z,3.70
2018-12-10T15:00:54.245Z,5.73
2018-12-10T15:05:57.531Z,2.73
2018-12-10T15:11:00.909Z,9.00
2018-12-10T15:16:04.214Z,5.80
2018-12-10T15:21:07.806Z,5.97
2018-12-10T15:26:11.334Z,2.90
2018-12-10T15:31:14.676Z,2.60
2018-12-10T15:36:17.975Z,4.07
2018-12-10T15:41:21.373Z,3.30
2018-12-10T15:46:24.734Z,4.17
2018-12-10T15:51:28.040Z,7.83
2018-12-10T15:56:31.256Z,4.43
2018-12-10T16:01:34.482Z,8.50
2018-12-10T16:06:37.768Z,4.83
2018-12-10T16:11:41.263Z,6.53
2018-12-10T16:16:44.630Z,4.63
2018-12-10T16:21:48.018Z,3.90
2018-12-10T16:26:51.381Z,4.53
2018-12-10T16:31:55.237Z,3.00
2018-12-10T16:36:58.492Z,3.13
2018-12-10T16:42:01.829Z,6.07
2018-12-10T16:47:06.119Z,3.90
2018-12-10T16:52:09.358Z,4.13
2018-12-10T16:57:12.720Z,2.97
2018-12-10T17:02:16.151Z,2.97
2018-12-10T17:07:19.392Z,3.13
2018-12-10T17:12:23.037Z,3.77
2018-12-10T17:17:26.471Z,4.10
2018-12-10T17:22:30.093Z,3.10
2018-12-10T17:27:33.361Z,5.57
2018-12-10T17:32:36.690Z,3.93
2018-12-10T17:37:39.974Z,3.10
2018-12-10T17:47:52.896Z,2.50
2018-12-10T17:52:56.238Z,5.80
2018-12-10T17:57:59.602Z,3.10
2018-12-10T18:03:03.012Z,4.00
2018-12-10T18:08:06.290Z,3.37
2018-12-10T18:13:09.692Z,3.30
2018-12-10T18:18:13.153Z,4.50
2018-12-10T18:23:16.516Z,3.00
2018-12-10T18:28:19.814Z,8.00
2018-12-10T18:33:23.072Z,3.93
2018-12-10T18:38:26.558Z,2.87
2018-12-10T18:43:29.848Z,2.37
2018-12-10T18:48:33.127Z,3.00
2018-12-10T18:53:36.631Z,5.20
2018-12-10T18:58:39.901Z,7.17
2018-12-10T19:03:43.172Z,3.70
2018-12-10T19:08:48.360Z,5.77
2018-12-10T19:13:51.653Z,3.00
2018-12-10T19:18:54.967Z,3.80
2018-12-10T19:23:58.245Z,3.67
2018-12-10T19:29:01.521Z,4.30
2018-12-10T19:34:04.731Z,5.10
2018-12-10T19:39:07.958Z,4.40
2018-12-10T19:44:11.223Z,4.60
2018-12-10T19:49:14.711Z,5.80
2018-12-10T19:54:17.992Z,6.47
2018-12-10T19:59:21.437Z,6.27
2018-12-10T20:04:24.725Z,4.00
2018-12-10T20:09:28.407Z,5.37
2018-12-10T20:14:31.782Z,5.40
2018-12-10T20:19:35.206Z,5.30
2018-12-10T20:24:38.546Z,5.67
2018-12-10T20:29:41.932Z,5.30
2018-12-10T20:34:45.476Z,4.40
2018-12-10T20:39:48.813Z,6.47
2018-12-10T20:44:52.475Z,6.73
2018-12-10T20:49:56.024Z,8.90
2018-12-10T20:54:59.713Z,7.80
2018-12-10T21:00:03.183Z,6.13
2018-12-10T21:05:06.689Z,8.60
2018-12-10T21:10:10.018Z,6.17
2018-12-10T21:15:13.380Z,6.87
2018-12-10T21:20:16.794Z,6.57
2018-12-10T21:25:26.770Z,6.80
2018-12-10T21:30:30.142Z,6.23
2018-12-10T21:35:33.521Z,7.10
2018-12-10T21:40:37.015Z,7.10
2018-12-10T21:45:40.351Z,7.80
2018-12-10T21:50:43.940Z,6.80
2018-12-10T21:55:47.215Z,6.83
2018-12-10T22:00:50.512Z,10.13
2018-12-10T22:05:54.127Z,7.13
2018-12-10T22:10:57.458Z,5.87
2018-12-10T22:16:00.842Z,5.40
2018-12-10T22:21:04.140Z,5.53
2018-12-10T22:26:07.483Z,6.30
2018-12-10T22:31:10.826Z,6.70
2018-12-10T22:36:14.176Z,6.67
2018-12-10T22:41:17.514Z,5.47
2018-12-10T22:46:20.802Z,6.10
2018-12-10T22:51:24.156Z,6.60
2018-12-10T22:56:27.542Z,7.30
2018-12-10T23:01:30.823Z,5.97
2018-12-10T23:06:34.233Z,7.30
2018-12-10T23:11:37.566Z,5.80
2018-12-10T23:16:41.114Z,6.47
2018-12-10T23:21:44.374Z,7.60
2018-12-10T23:26:48.099Z,6.23
2018-12-10T23:31:51.611Z,7.53
2018-12-10T23:36:54.926Z,5.60
2018-12-10T23:41:58.359Z,5.10
2018-12-10T23:47:01.583Z,9.67
2018-12-10T23:52:04.855Z,5.40
2018-12-10T23:57:08.094Z,5.93
